createdAt,value
2022-12-05T00:00:27.238Z,47.88
2022-12-05T00:02:55.256Z,45.30
2022-12-05T00:05:21.799Z,44.67
2022-12-05T00:07:48.510Z,48.92
2022-12-05T00:10:15.553Z,45.65
2022-12-05T00:12:42.151Z,44.08
2022-12-05T00:15:10.049Z,48.25
2022-12-05T00:17:36.659Z,46.58
2022-12-05T00:20:05.853Z,47.63
2022-12-05T00:22:34.920Z,46.33
2022-12-05T00:25:01.547Z,45.03
2022-12-05T00:27:28.238Z,48.72
2022-12-05T00:29:54.941Z,43.65
2022-12-05T00:32:21.702Z,44.30
2022-12-05T00:34:48.360Z,44.90
2022-12-05T00:37:16.384Z,45.42
2022-12-05T00:39:43.016Z,46.53
2022-12-05T00:42:09.581Z,45.10
2022-12-05T00:44:36.183Z,48.20
2022-12-05T00:47:02.805Z,44.40
2022-12-05T00:49:29.375Z,46.75
2022-12-05T00:51:55.979Z,45.38
2022-12-05T00:54:23.952Z,43.90
2022-12-05T00:56:50.626Z,42.47
2022-12-05T00:59:19.108Z,43.33
2022-12-05T01:01:48.024Z,44.08
2022-12-05T01:04:16.473Z,45.17
2022-12-05T01:06:43.836Z,46.42
2022-12-05T01:09:13.695Z,45.30
2022-12-05T01:11:43.287Z,43.13
2022-12-05T01:14:10.304Z,43.75
2022-12-05T01:16:39.143Z,45.00
2022-12-05T01:19:08.930Z,44.80
2022-12-05T01:21:35.512Z,45.53
2022-12-05T01:24:02.317Z,45.42
2022-12-05T01:26:29.029Z,43.22
2022-12-05T01:28:57.052Z,41.35
2022-12-05T01:31:26.009Z,45.80
2022-12-05T01:33:55.110Z,44.33
2022-12-05T01:36:22.342Z,42.53
2022-12-05T01:38:49.898Z,42.90
2022-12-05T01:41:18.675Z,45.80
2022-12-05T01:44:01.447Z,42.60
2022-12-05T01:46:30.097Z,44.13
2022-12-05T01:49:00.806Z,43.10
2022-12-05T01:51:27.746Z,43.28
2022-12-05T01:53:54.381Z,43.97
2022-12-05T01:56:22.270Z,46.13
2022-12-05T01:58:49.593Z,43.83
2022-12-05T02:01:18.289Z,46.30
2022-12-05T02:03:48.192Z,45.33
2022-12-05T02:06:14.779Z,45.75
2022-12-05T02:08:41.889Z,45.45
2022-12-05T02:11:09.675Z,43.03
2022-12-05T02:13:57.199Z,48.08
2022-12-05T02:16:37.017Z,42.25
2022-12-05T02:19:21.800Z,45.00
2022-12-05T02:22:23.005Z,41.60
2022-12-05T02:25:17.261Z,45.35
2022-12-05T02:28:21.417Z,42.53
2022-12-05T02:33:24.671Z,41.83
2022-12-05T02:36:01.237Z,44.47
2022-12-05T02:38:36.247Z,43.72
2022-12-05T02:41:14.116Z,43.75
2022-12-05T02:43:47.800Z,42.75
2022-12-05T02:46:20.805Z,42.00
2022-12-05T02:48:50.678Z,43.38
2022-12-05T02:51:20.968Z,42.85
2022-12-05T02:53:50.271Z,41.30
2022-12-05T02:56:18.708Z,42.05
2022-12-05T02:58:50.809Z,43.60
2022-12-05T03:01:19.628Z,42.25
2022-12-05T03:03:46.400Z,40.58
2022-12-05T03:06:16.929Z,40.60
2022-12-05T03:08:47.876Z,41.65
2022-12-05T03:11:14.926Z,40.15
2022-12-05T03:13:45.663Z,41.55
2022-12-05T03:16:16.884Z,39.75
2022-12-05T03:18:49.174Z,39.22
2022-12-05T03:21:22.289Z,37.08
2022-12-05T03:23:52.297Z,36.13
2022-12-05T03:26:35.886Z,37.75
2022-12-05T03:29:11.742Z,38.30
2022-12-05T03:31:44.580Z,35.95
2022-12-05T03:34:17.489Z,34.38
2022-12-05T03:36:48.597Z,33.03
2022-12-05T03:39:21.886Z,33.33
2022-12-05T03:44:23.565Z,31.13
2022-12-05T03:46:55.586Z,29.75
2022-12-05T03:49:33.810Z,30.13
2022-12-05T03:52:07.181Z,31.45
2022-12-05T03:54:37.612Z,28.90
2022-12-05T03:57:08.174Z,28.50
2022-12-05T03:59:39.523Z,28.33
2022-12-05T04:02:12.069Z,29.05
2022-12-05T04:04:47.474Z,26.67
2022-12-05T04:07:18.077Z,27.50
2022-12-05T04:09:48.937Z,29.42
2022-12-05T04:12:20.743Z,27.45
2022-12-05T04:14:53.030Z,27.95
2022-12-05T04:17:30.202Z,27.42
2022-12-05T04:20:03.308Z,28.13
2022-12-05T04:22:30.252Z,26.67
2022-12-05T04:24:59.591Z,28.70
2022-12-05T04:27:35.237Z,28.50
2022-12-05T04:30:05.786Z,26.73
2022-12-05T04:32:39.677Z,25.95
2022-12-05T04:35:14.229Z,28.73
2022-12-05T04:37:44.897Z,26.70
2022-12-05T04:40:18.717Z,26.40
2022-12-05T04:42:47.374Z,28.48
2022-12-05T04:45:18.587Z,28.05
2022-12-05T04:47:50.046Z,25.80
2022-12-05T04:50:19.567Z,27.17
2022-12-05T04:52:52.893Z,26.95
2022-12-05T04:55:22.125Z,27.60
2022-12-05T04:57:55.690Z,27.27
2022-12-05T05:00:22.388Z,25.38
2022-12-05T05:02:54.492Z,26.15
2022-12-05T05:05:23.482Z,27.35
2022-12-05T05:07:52.059Z,27.23
2022-12-05T05:10:30.890Z,25.38
2022-12-05T05:12:57.492Z,26.92
2022-12-05T05:15:24.060Z,25.45
2022-12-05T05:17:50.735Z,26.75
2022-12-05T05:20:19.953Z,25.80
2022-12-05T05:22:49.148Z,27.67
2022-12-05T05:25:15.816Z,25.35
2022-12-05T05:27:42.349Z,27.92
2022-12-05T05:30:09.721Z,24.63
2022-12-05T05:32:36.335Z,25.13
2022-12-05T05:35:02.926Z,24.52
2022-12-05T05:37:29.508Z,24.40
2022-12-05T05:39:57.916Z,23.90
2022-12-05T05:42:24.711Z,25.30
2022-12-05T05:44:51.336Z,24.58
2022-12-05T05:47:17.931Z,24.70
2022-12-05T05:49:44.495Z,24.58
2022-12-05T05:52:11.028Z,23.80
2022-12-05T05:54:37.613Z,24.40
2022-12-05T05:57:05.633Z,22.92
2022-12-05T05:59:32.346Z,23.33
2022-12-05T06:01:58.894Z,24.15
2022-12-05T06:04:25.575Z,23.33
2022-12-05T06:06:52.242Z,23.50
2022-12-05T06:09:18.865Z,24.00
2022-12-05T06:11:45.400Z,23.30
2022-12-05T06:14:13.360Z,23.05
2022-12-05T06:16:39.991Z,23.98
2022-12-05T06:19:06.588Z,22.80
2022-12-05T06:21:33.142Z,23.50
2022-12-05T06:23:59.683Z,24.17
2022-12-05T06:26:26.279Z,23.77
2022-12-05T06:28:53.665Z,23.30
2022-12-05T06:31:24.262Z,23.05
2022-12-05T06:33:51.010Z,23.42
2022-12-05T06:36:19.984Z,24.02
2022-12-05T06:38:46.691Z,25.35
2022-12-05T06:41:15.562Z,23.17
2022-12-05T06:43:42.579Z,21.83
2022-12-05T06:46:11.039Z,22.33
2022-12-05T06:48:39.519Z,20.17
2022-12-05T06:51:09.884Z,19.85
2022-12-05T06:53:36.500Z,20.15
2022-12-05T06:56:05.461Z,20.27
2022-12-05T06:58:32.127Z,19.58
2022-12-05T07:00:58.853Z,19.50
2022-12-05T07:03:25.557Z,19.30
2022-12-05T07:05:53.586Z,19.10
2022-12-05T07:08:20.200Z,19.85
2022-12-05T07:10:51.348Z,17.85
2022-12-05T07:13:18.133Z,19.83
2022-12-05T07:15:46.481Z,18.83
2022-12-05T07:18:13.717Z,19.63
2022-12-05T07:21:03.891Z,19.67
2022-12-05T07:23:28.742Z,18.15
2022-12-05T07:25:55.584Z,19.88
2022-12-05T07:28:22.141Z,19.00
2022-12-05T07:30:49.123Z,19.73
2022-12-05T07:33:15.684Z,19.42
2022-12-05T07:35:42.306Z,18.20
2022-12-05T07:38:08.899Z,17.63
2022-12-05T07:40:37.461Z,17.40
2022-12-05T07:43:04.030Z,19.23
2022-12-05T07:45:30.654Z,16.88
2022-12-05T07:47:57.270Z,16.58
2022-12-05T07:50:23.960Z,17.65
2022-12-05T07:52:50.584Z,18.70
2022-12-05T07:55:17.223Z,17.85
2022-12-05T07:57:45.250Z,17.70
2022-12-05T08:00:13.377Z,17.38
2022-12-05T08:02:40.954Z,18.02
2022-12-05T08:05:08.063Z,18.20
2022-12-05T08:07:34.733Z,17.23
2022-12-05T08:10:02.540Z,18.52
2022-12-05T08:12:29.151Z,19.13
2022-12-05T08:14:57.090Z,18.52
2022-12-05T08:17:23.719Z,19.10
2022-12-05T08:19:50.350Z,17.80
2022-12-05T08:22:16.988Z,19.13
2022-12-05T08:24:43.605Z,19.73
2022-12-05T08:27:10.203Z,22.23
2022-12-05T08:29:36.798Z,20.00
2022-12-05T08:32:05.309Z,18.73
2022-12-05T08:34:31.986Z,19.15
2022-12-05T08:36:58.595Z,18.23
2022-12-05T08:39:25.258Z,18.50
2022-12-05T08:41:51.840Z,18.70
2022-12-05T08:44:18.791Z,18.85
2022-12-05T08:46:47.359Z,18.23
2022-12-05T08:49:15.653Z,18.10
2022-12-05T08:51:42.567Z,17.98
2022-12-05T08:54:09.395Z,19.15
2022-12-05T08:56:36.387Z,17.00
2022-12-05T08:59:05.622Z,16.50
2022-12-05T09:01:33.174Z,16.63
2022-12-05T09:04:00.506Z,17.10
2022-12-05T09:06:29.207Z,16.17
2022-12-05T09:08:57.063Z,16.70
2022-12-05T09:11:26.626Z,16.67
2022-12-05T09:13:55.167Z,17.52
2022-12-05T09:16:24.818Z,17.00
2022-12-05T09:18:52.206Z,17.30
2022-12-05T09:21:20.912Z,16.92
2022-12-05T09:23:50.097Z,17.17
2022-12-05T09:26:19.642Z,17.30
2022-12-05T09:28:46.337Z,16.95
2022-12-05T09:31:15.082Z,17.77
2022-12-05T09:33:42.253Z,16.05
2022-12-05T09:36:12.240Z,17.27
2022-12-05T09:38:38.903Z,17.73
2022-12-05T09:41:20.846Z,17.08
2022-12-05T09:43:58.712Z,17.73
2022-12-05T09:46:36.642Z,18.00
2022-12-05T09:49:05.382Z,18.55
2022-12-05T09:51:32.626Z,18.30
2022-12-05T09:53:59.365Z,17.08
2022-12-05T09:56:29.527Z,16.85
2022-12-05T09:58:58.759Z,16.77
2022-12-05T10:01:36.644Z,16.70
2022-12-05T10:04:18.069Z,17.13
2022-12-05T10:06:53.999Z,17.38
2022-12-05T10:09:39.423Z,16.98
2022-12-05T10:12:23.122Z,18.17
2022-12-05T10:15:01.607Z,16.33
2022-12-05T10:17:33.093Z,16.67
2022-12-05T10:20:03.390Z,17.90
2022-12-05T10:22:38.346Z,17.83
2022-12-05T10:25:06.539Z,18.30
2022-12-05T10:27:40.348Z,18.25
2022-12-05T10:30:14.819Z,18.10
2022-12-05T10:32:49.664Z,18.50
2022-12-05T10:35:18.913Z,20.27
2022-12-05T10:37:48.632Z,18.40
2022-12-05T10:40:15.637Z,18.73
2022-12-05T10:42:44.270Z,20.05
2022-12-05T10:45:16.701Z,20.45
2022-12-05T10:47:43.599Z,19.50
2022-12-05T10:50:22.394Z,19.95
2022-12-05T10:52:49.126Z,19.38
2022-12-05T10:55:18.389Z,20.17
2022-12-05T10:57:50.779Z,20.40
2022-12-05T11:00:22.176Z,19.90
2022-12-05T11:02:49.640Z,20.05
2022-12-05T11:05:27.885Z,19.60
2022-12-05T11:07:56.450Z,18.92
2022-12-05T11:10:27.502Z,19.63
2022-12-05T11:12:58.052Z,20.15
2022-12-05T11:15:26.499Z,18.75
2022-12-05T11:17:54.714Z,21.02
2022-12-05T11:20:37.823Z,20.70
2022-12-05T11:23:21.781Z,19.17
2022-12-05T11:25:48.496Z,19.83
2022-12-05T11:28:29.887Z,20.52
2022-12-05T11:30:58.007Z,20.33
2022-12-05T11:33:26.168Z,19.98
2022-12-05T11:35:54.640Z,19.15
2022-12-05T11:38:24.787Z,20.73
2022-12-05T11:40:54.792Z,19.95
2022-12-05T11:43:53.025Z,19.73
2022-12-05T11:46:27.947Z,19.33
2022-12-05T11:49:11.398Z,18.65
2022-12-05T11:51:42.252Z,19.33
2022-12-05T11:54:56.854Z,19.95
2022-12-05T11:57:24.252Z,20.35
2022-12-05T12:00:16.002Z,19.55
2022-12-05T12:03:04.646Z,19.73
2022-12-05T12:05:37.772Z,20.65
2022-12-05T12:08:16.459Z,20.70
2022-12-05T12:10:54.579Z,19.23
2022-12-05T12:13:35.367Z,19.88
2022-12-05T12:16:13.927Z,19.55
2022-12-05T12:18:59.534Z,18.08
2022-12-05T12:21:38.605Z,20.05
2022-12-05T12:24:16.426Z,19.48
2022-12-05T12:26:56.689Z,18.27
2022-12-05T12:29:36.967Z,17.55
2022-12-05T12:32:19.495Z,17.10
2022-12-05T12:35:03.188Z,17.75
2022-12-05T12:40:12.342Z,17.27
2022-12-05T12:42:46.912Z,17.27
2022-12-05T12:45:41.513Z,17.60
2022-12-05T12:48:22.794Z,17.00
2022-12-05T12:50:54.219Z,16.55
2022-12-05T12:53:52.068Z,17.13
2022-12-05T12:56:30.859Z,17.92
2022-12-05T12:59:09.236Z,17.30
2022-12-05T13:01:42.909Z,18.05
2022-12-05T13:04:15.721Z,18.42
2022-12-05T13:06:48.190Z,17.50
2022-12-05T13:09:18.939Z,19.25
2022-12-05T13:11:48.458Z,16.38
2022-12-05T13:14:18.638Z,18.63
2022-12-05T13:16:49.465Z,18.70
2022-12-05T13:19:29.566Z,17.58
2022-12-05T13:21:57.840Z,18.45
2022-12-05T13:24:27.353Z,20.15
2022-12-05T13:26:58.546Z,20.05
2022-12-05T13:29:31.802Z,19.35
2022-12-05T13:31:59.805Z,19.60
2022-12-05T13:34:47.700Z,20.25
2022-12-05T13:37:24.549Z,18.98
2022-12-05T13:39:53.325Z,20.60
2022-12-05T13:42:23.141Z,19.70
2022-12-05T13:44:52.604Z,20.77
2022-12-05T13:47:26.117Z,21.23
2022-12-05T13:49:59.437Z,21.58
2022-12-05T13:55:00.813Z,20.38
2022-12-05T13:57:49.397Z,21.92
2022-12-05T14:00:25.870Z,21.83
2022-12-05T14:02:54.983Z,21.70
2022-12-05T14:05:51.127Z,21.55
2022-12-05T14:08:51.512Z,21.98
2022-12-05T14:11:18.262Z,23.05
2022-12-05T14:13:45.766Z,21.63
2022-12-05T14:16:46.282Z,22.15
2022-12-05T14:19:49.718Z,22.67
2022-12-05T14:22:41.892Z,24.03
2022-12-05T14:25:20.391Z,22.10
2022-12-05T14:27:54.492Z,23.08
2022-12-05T14:30:25.572Z,22.25
2022-12-05T14:32:54.039Z,23.75
2022-12-05T14:35:25.604Z,23.00
2022-12-05T14:37:56.041Z,23.42
2022-12-05T14:40:29.663Z,24.00
2022-12-05T14:42:59.395Z,24.15
2022-12-05T14:45:31.404Z,22.90
2022-12-05T14:47:59.412Z,24.17
2022-12-05T14:50:41.616Z,24.83
2022-12-05T14:53:37.814Z,24.83
2022-12-05T14:56:14.653Z,24.20
2022-12-05T14:58:46.184Z,24.55
2022-12-05T15:01:18.547Z,23.42
2022-12-05T15:04:03.061Z,23.93
2022-12-05T15:06:31.927Z,24.30
2022-12-05T15:09:35.019Z,24.02
2022-12-05T15:11:51.177Z,23.27
2022-12-05T15:14:21.394Z,23.88
2022-12-05T15:16:52.391Z,25.13
2022-12-05T15:19:24.022Z,23.90
2022-12-05T15:21:54.890Z,24.48
2022-12-05T15:24:22.995Z,24.17
2022-12-05T15:26:52.273Z,24.83
2022-12-05T15:29:26.784Z,25.58
2022-12-05T15:31:56.048Z,25.98
2022-12-05T15:34:29.729Z,25.73
2022-12-05T15:37:02.792Z,25.17
2022-12-05T15:39:50.704Z,24.67
2022-12-05T15:42:17.324Z,24.35
2022-12-05T15:44:43.898Z,24.05
2022-12-05T15:47:20.217Z,24.65
2022-12-05T15:49:47.317Z,24.23
2022-12-05T15:52:25.311Z,23.63
2022-12-05T15:54:54.128Z,24.45
2022-12-05T15:57:27.526Z,25.52
2022-12-05T16:00:01.435Z,24.30
2022-12-05T16:02:43.040Z,24.25
2022-12-05T16:05:22.380Z,25.05
2022-12-05T16:07:50.760Z,25.52
2022-12-05T16:10:19.924Z,24.65
2022-12-05T16:12:48.960Z,23.42
2022-12-05T16:15:20.108Z,23.83
2022-12-05T16:17:52.154Z,25.33
2022-12-05T16:20:25.789Z,25.65
2022-12-05T16:22:54.248Z,24.60
2022-12-05T16:25:24.933Z,24.00
2022-12-05T16:28:00.620Z,25.50
2022-12-05T16:30:29.379Z,24.35
2022-12-05T16:33:05.480Z,23.02
2022-12-05T16:35:35.805Z,24.40
2022-12-05T16:38:04.545Z,23.67
2022-12-05T16:40:33.130Z,24.15
2022-12-05T16:43:03.653Z,24.38
2022-12-05T16:45:42.367Z,24.48
2022-12-05T16:48:21.995Z,24.52
2022-12-05T16:50:50.091Z,24.40
2022-12-05T16:53:21.574Z,23.50
2022-12-05T16:55:50.247Z,23.83
2022-12-05T16:58:22.988Z,22.58
2022-12-05T17:00:50.202Z,23.13
2022-12-05T17:06:04.433Z,22.05
2022-12-05T17:08:31.039Z,24.02
2022-12-05T17:10:59.525Z,23.52
2022-12-05T17:13:26.157Z,22.88
2022-12-05T17:15:52.811Z,23.40
2022-12-05T17:18:25.262Z,22.38
2022-12-05T17:20:57.347Z,22.20
2022-12-05T17:23:23.949Z,23.85
2022-12-05T17:25:53.439Z,23.40
2022-12-05T17:28:21.873Z,23.33
2022-12-05T17:30:48.654Z,22.30
2022-12-05T17:33:16.676Z,21.08
2022-12-05T17:35:43.741Z,25.13
2022-12-05T17:38:10.509Z,23.35
2022-12-05T17:40:38.262Z,21.85
2022-12-05T17:43:05.264Z,23.75
2022-12-05T17:45:33.254Z,22.45
2022-12-05T17:48:00.023Z,22.85
2022-12-05T17:50:27.497Z,21.77
2022-12-05T17:52:56.859Z,22.73
2022-12-05T17:55:25.679Z,23.15
2022-12-05T17:57:53.184Z,23.08
2022-12-05T18:00:21.349Z,22.95
2022-12-05T18:02:50.013Z,21.30
2022-12-05T18:05:16.990Z,21.35
2022-12-05T18:07:45.115Z,23.10
2022-12-05T18:10:13.883Z,23.35
2022-12-05T18:12:40.748Z,23.67
2022-12-05T18:15:08.399Z,21.00
2022-12-05T18:17:35.720Z,20.63
2022-12-05T18:20:04.166Z,20.50
2022-12-05T18:22:30.808Z,23.42
2022-12-05T18:24:57.696Z,22.08
2022-12-05T18:27:24.984Z,22.17
2022-12-05T18:29:51.714Z,23.00
2022-12-05T18:32:19.312Z,19.58
2022-12-05T18:34:45.868Z,21.58
2022-12-05T18:37:14.352Z,21.50
2022-12-05T18:39:40.952Z,27.92
2022-12-05T18:42:14.613Z,31.30
2022-12-05T18:44:41.890Z,25.73
2022-12-05T18:47:08.706Z,24.90
2022-12-05T18:49:35.353Z,23.77
2022-12-05T18:52:01.993Z,24.35
2022-12-05T18:54:30.018Z,28.27
2022-12-05T18:56:56.661Z,25.90
2022-12-05T18:59:23.578Z,24.10
2022-12-05T19:01:50.435Z,25.27
2022-12-05T19:04:18.902Z,23.02
2022-12-05T19:06:49.187Z,24.23
2022-12-05T19:09:17.398Z,25.55
2022-12-05T19:11:47.688Z,24.38
2022-12-05T19:14:15.613Z,26.60
2022-12-05T19:16:42.353Z,26.38
2022-12-05T19:19:12.734Z,24.48
2022-12-05T19:21:39.633Z,24.15
2022-12-05T19:24:08.148Z,24.65
2022-12-05T19:26:35.346Z,25.65
2022-12-05T19:29:04.266Z,26.77
2022-12-05T19:31:31.146Z,24.38
2022-12-05T19:34:00.281Z,25.35
2022-12-05T19:36:28.850Z,26.48
2022-12-05T19:38:56.257Z,25.40
2022-12-05T19:41:25.417Z,24.75
2022-12-05T19:43:52.247Z,25.48
2022-12-05T19:46:22.600Z,24.92
2022-12-05T19:48:49.318Z,26.05
2022-12-05T19:51:16.339Z,23.35
2022-12-05T19:53:44.193Z,22.83
2022-12-05T19:56:14.622Z,22.60
2022-12-05T19:58:42.186Z,22.13
2022-12-05T20:01:10.467Z,23.25
2022-12-05T20:03:38.852Z,21.65
2022-12-05T20:06:06.369Z,21.58
2022-12-05T20:08:34.464Z,23.30
2022-12-05T20:11:05.139Z,21.90
2022-12-05T20:13:48.095Z,20.23
2022-12-05T20:16:16.666Z,20.92
2022-12-05T20:18:44.931Z,23.52
2022-12-05T20:21:13.608Z,20.42
2022-12-05T20:23:40.470Z,19.90
2022-12-05T20:26:08.975Z,20.00
2022-12-05T20:28:35.982Z,19.05
2022-12-05T20:31:04.203Z,19.08
2022-12-05T20:33:30.926Z,19.30
2022-12-05T20:36:01.959Z,18.85
2022-12-05T20:38:28.516Z,19.75
2022-12-05T20:40:58.713Z,18.27
2022-12-05T20:43:25.430Z,19.02
2022-12-05T20:45:52.111Z,20.55
2022-12-05T20:48:18.838Z,18.42
2022-12-05T20:50:45.409Z,19.65
2022-12-05T20:53:13.514Z,17.63
2022-12-05T20:55:40.085Z,17.38
2022-12-05T20:58:06.699Z,17.90
2022-12-05T21:00:33.335Z,17.92
2022-12-05T21:02:59.983Z,17.98
2022-12-05T21:05:26.620Z,16.02
2022-12-05T21:07:53.405Z,17.30
2022-12-05T21:10:21.931Z,17.10
2022-12-05T21:12:48.496Z,17.38
2022-12-05T21:15:15.164Z,17.00
2022-12-05T21:17:41.732Z,17.35
2022-12-05T21:20:09.115Z,17.33
2022-12-05T21:22:35.680Z,15.65
2022-12-05T21:25:02.320Z,18.02
2022-12-05T21:27:30.281Z,17.83
2022-12-05T21:29:57.190Z,16.92
2022-12-05T21:32:24.035Z,16.90
2022-12-05T21:34:50.592Z,18.27
2022-12-05T21:37:17.282Z,16.38
2022-12-05T21:39:43.887Z,16.25
2022-12-05T21:42:10.489Z,18.23
2022-12-05T21:44:38.420Z,15.93
2022-12-05T21:47:05.077Z,16.30
2022-12-05T21:49:31.613Z,17.85
2022-12-05T21:51:58.227Z,17.00
2022-12-05T21:54:24.811Z,16.02
2022-12-05T21:56:51.400Z,16.20
2022-12-05T21:59:17.987Z,16.27
2022-12-05T22:01:46.140Z,15.70
2022-12-05T22:04:12.747Z,16.77
2022-12-05T22:06:39.393Z,16.60
2022-12-05T22:09:05.993Z,17.23
2022-12-05T22:11:32.583Z,17.67
2022-12-05T22:13:59.297Z,18.77
2022-12-05T22:16:32.478Z,17.67
2022-12-05T22:19:01.700Z,17.42
2022-12-05T22:21:28.822Z,17.48
2022-12-05T22:23:55.421Z,16.88
2022-12-05T22:26:24.159Z,17.65
2022-12-05T22:28:51.968Z,16.85
2022-12-05T22:31:19.178Z,17.85
2022-12-05T22:33:46.267Z,17.58
2022-12-05T22:36:15.773Z,16.95
2022-12-05T22:38:44.045Z,17.17
2022-12-05T22:41:12.932Z,18.00
2022-12-05T22:43:40.143Z,17.42
2022-12-05T22:46:08.400Z,18.40
2022-12-05T22:48:35.491Z,17.40
2022-12-05T22:51:02.689Z,17.63
2022-12-05T22:53:31.044Z,18.23
2022-12-05T22:56:02.433Z,16.92
2022-12-05T22:58:29.119Z,18.75
2022-12-05T23:00:56.004Z,18.15
2022-12-05T23:03:22.797Z,18.08
2022-12-05T23:05:49.451Z,18.98
2022-12-05T23:08:16.165Z,17.33
2022-12-05T23:10:44.179Z,18.50
2022-12-05T23:13:10.768Z,17.98
2022-12-05T23:15:37.800Z,17.77
2022-12-05T23:18:04.538Z,19.17
2022-12-05T23:20:31.102Z,17.35
2022-12-05T23:22:57.667Z,16.58
2022-12-05T23:25:24.275Z,17.38
2022-12-05T23:27:52.206Z,16.27
2022-12-05T23:30:19.032Z,16.38
2022-12-05T23:32:45.633Z,16.30
2022-12-05T23:35:12.317Z,16.10
2022-12-05T23:37:38.917Z,14.27
2022-12-05T23:40:06.771Z,13.85
2022-12-05T23:42:33.403Z,13.60
2022-12-05T23:45:01.405Z,13.10
2022-12-05T23:47:27.985Z,11.23
2022-12-05T23:49:54.618Z,12.68
2022-12-05T23:52:21.168Z,12.13
2022-12-05T23:54:47.703Z,11.57
2022-12-05T23:57:17.585Z,11.77
2022-12-05T23:59:44.863Z,12.38
